DAL2633 KRDU-KATL
Flight info
| Callsign | DAL2633 |
|---|---|
| Flight time | 1h 1m |
| Altitude | 32000 |
| Route | SHPRD4 SHPRD LEAVI OZZZI2 |
| Aircraft | B738/M-SDE2E3FGHIRWXY/LB1 |
Departure
| Time | 2026-05-07 02:30 |
|---|---|
| Airport | Raleigh-Durham International Airport (KRDU) |
Arrival
| Time | 2026-05-07 03:32 |
|---|---|
| Airport | Hartsfield Jackson Atlanta International Airport (KATL) |
| Time | Latitude | Longitude | Altitude | Speed | Heading |
|---|---|---|---|---|---|
| 2026-05-07 02:06 | 35.87636 | -78.79553 | 415 ft | 0 kts | 123° |
| 2026-05-07 02:16 | 35.87638 | -78.79557 | 423 ft | 2 kts | 122° |
| 2026-05-07 02:16 | 35.87648 | -78.79577 | 412 ft | 3 kts | 116° |
| 2026-05-07 02:16 | 35.87655 | -78.79599 | 412 ft | 3 kts | 104° |
| 2026-05-07 02:16 | 35.87659 | -78.79623 | 416 ft | 3 kts | 84° |
| 2026-05-07 02:17 | 35.87654 | -78.79644 | 416 ft | 2 kts | 50° |
| 2026-05-07 02:17 | 35.87651 | -78.79649 | 413 ft | 2 kts | 45° |
| 2026-05-07 02:19 | 35.87659 | -78.79639 | 421 ft | 5 kts | 44° |
| 2026-05-07 02:19 | 35.87721 | -78.79565 | 414 ft | 19 kts | 44° |
| 2026-05-07 02:20 | 35.87815 | -78.79449 | 425 ft | 19 kts | 45° |
| 2026-05-07 02:20 | 35.87905 | -78.79337 | 430 ft | 18 kts | 45° |
| 2026-05-07 02:20 | 35.87992 | -78.79230 | 428 ft | 17 kts | 45° |
| 2026-05-07 02:20 | 35.88076 | -78.79126 | 421 ft | 17 kts | 45° |
| 2026-05-07 02:21 | 35.88155 | -78.79024 | 412 ft | 16 kts | 45° |
| 2026-05-07 02:21 | 35.88233 | -78.78927 | 420 ft | 16 kts | 45° |
| 2026-05-07 02:21 | 35.88308 | -78.78834 | 424 ft | 16 kts | 45° |
| 2026-05-07 02:21 | 35.88395 | -78.78725 | 416 ft | 20 kts | 45° |
| 2026-05-07 02:22 | 35.88494 | -78.78602 | 417 ft | 20 kts | 45° |
| 2026-05-07 02:22 | 35.88592 | -78.78482 | 419 ft | 20 kts | 45° |
| 2026-05-07 02:22 | 35.88687 | -78.78365 | 418 ft | 19 kts | 45° |
| 2026-05-07 02:22 | 35.88779 | -78.78252 | 418 ft | 18 kts | 45° |
| 2026-05-07 02:23 | 35.88867 | -78.78143 | 418 ft | 18 kts | 45° |
| 2026-05-07 02:23 | 35.88952 | -78.78036 | 415 ft | 17 kts | 50° |
| 2026-05-07 02:23 | 35.89002 | -78.77910 | 417 ft | 16 kts | 61° |
| 2026-05-07 02:23 | 35.89078 | -78.77805 | 415 ft | 16 kts | 45° |
| 2026-05-07 02:24 | 35.89149 | -78.77717 | 419 ft | 10 kts | 46° |
| 2026-05-07 02:24 | 35.89176 | -78.77683 | 420 ft | 4 kts | 46° |
| 2026-05-07 02:24 | 35.89196 | -78.77660 | 414 ft | 4 kts | 32° |
| 2026-05-07 02:24 | 35.89223 | -78.77653 | 423 ft | 4 kts | 359° |
| 2026-05-07 02:25 | 35.89247 | -78.77665 | 424 ft | 4 kts | 326° |
| 2026-05-07 02:25 | 35.89256 | -78.77673 | 425 ft | 0 kts | 318° |
| 2026-05-07 02:25 | 35.89257 | -78.77675 | 425 ft | 2 kts | 318° |
| 2026-05-07 02:26 | 35.89282 | -78.77703 | 426 ft | 8 kts | 316° |
| 2026-05-07 02:26 | 35.89297 | -78.77721 | 427 ft | 0 kts | 316° |
| 2026-05-07 02:29 | 35.89308 | -78.77733 | 427 ft | 7 kts | 316° |
| 2026-05-07 02:29 | 35.89361 | -78.77798 | 420 ft | 9 kts | 310° |
| 2026-05-07 02:29 | 35.89354 | -78.77846 | 422 ft | 0 kts | 223° |
| 2026-05-07 02:29 | 35.89316 | -78.77891 | 422 ft | 33 kts | 224° |
| 2026-05-07 02:30 | 35.88983 | -78.78298 | 426 ft | 100 kts | 225° |
| 2026-05-07 02:30 | 35.88348 | -78.79078 | 426 ft | 156 kts | 224° |
| 2026-05-07 02:30 | 35.87502 | -78.80136 | 730 ft | 179 kts | 226° |
| 2026-05-07 02:30 | 35.86683 | -78.81156 | 1841 ft | 154 kts | 224° |
| 2026-05-07 02:31 | 35.85941 | -78.82056 | 2688 ft | 152 kts | 224° |
| 2026-05-07 02:31 | 35.85129 | -78.83058 | 2953 ft | 178 kts | 226° |
| 2026-05-07 02:31 | 35.84230 | -78.84203 | 3227 ft | 195 kts | 227° |
| 2026-05-07 02:31 | 35.83247 | -78.85471 | 3387 ft | 214 kts | 227° |
| 2026-05-07 02:32 | 35.82208 | -78.86843 | 3684 ft | 229 kts | 229° |
| 2026-05-07 02:32 | 35.81118 | -78.88337 | 4095 ft | 241 kts | 230° |
| 2026-05-07 02:32 | 35.79954 | -78.89904 | 4694 ft | 248 kts | 231° |
| 2026-05-07 02:32 | 35.78879 | -78.91497 | 5707 ft | 241 kts | 235° |
| 2026-05-07 02:33 | 35.77845 | -78.93148 | 5858 ft | 243 kts | 234° |
| 2026-05-07 02:33 | 35.76803 | -78.94772 | 6003 ft | 244 kts | 235° |
| 2026-05-07 02:33 | 35.75743 | -78.96428 | 6005 ft | 247 kts | 235° |
| 2026-05-07 02:33 | 35.74667 | -78.98073 | 6028 ft | 247 kts | 236° |
| 2026-05-07 02:34 | 35.74021 | -79.00004 | 6386 ft | 249 kts | 267° |
| 2026-05-07 02:34 | 35.74175 | -79.02121 | 7154 ft | 249 kts | 281° |
| 2026-05-07 02:34 | 35.74733 | -79.04144 | 7936 ft | 251 kts | 288° |
| 2026-05-07 02:34 | 35.75421 | -79.06142 | 8611 ft | 255 kts | 289° |
| 2026-05-07 02:35 | 35.76125 | -79.08141 | 9260 ft | 260 kts | 289° |
| 2026-05-07 02:35 | 35.76842 | -79.10192 | 9983 ft | 261 kts | 289° |
| 2026-05-07 02:35 | 35.77562 | -79.12280 | 10420 ft | 274 kts | 289° |
| 2026-05-07 02:35 | 35.78328 | -79.14533 | 10567 ft | 296 kts | 289° |
| 2026-05-07 02:36 | 35.79147 | -79.16952 | 10713 ft | 316 kts | 289° |
| 2026-05-07 02:36 | 35.80016 | -79.19526 | 10883 ft | 334 kts | 289° |
| 2026-05-07 02:36 | 35.80917 | -79.22200 | 11320 ft | 341 kts | 289° |
| 2026-05-07 02:36 | 35.81828 | -79.24907 | 11891 ft | 344 kts | 289° |
| 2026-05-07 02:37 | 35.82691 | -79.27642 | 11980 ft | 341 kts | 284° |
| 2026-05-07 02:37 | 35.83170 | -79.30488 | 12004 ft | 339 kts | 275° |
| 2026-05-07 02:37 | 35.83309 | -79.33382 | 12004 ft | 338 kts | 267° |
| 2026-05-07 02:37 | 35.83116 | -79.36259 | 12017 ft | 337 kts | 264° |
| 2026-05-07 02:38 | 35.82881 | -79.39130 | 12016 ft | 337 kts | 263° |
| 2026-05-07 02:38 | 35.82647 | -79.42006 | 12020 ft | 337 kts | 264° |
| 2026-05-07 02:38 | 35.82422 | -79.44869 | 12029 ft | 337 kts | 263° |
| 2026-05-07 02:38 | 35.82200 | -79.47749 | 12024 ft | 338 kts | 264° |
| 2026-05-07 02:39 | 35.81979 | -79.50633 | 12023 ft | 338 kts | 263° |
| 2026-05-07 02:39 | 35.81750 | -79.53508 | 12022 ft | 337 kts | 262° |
| 2026-05-07 02:39 | 35.81367 | -79.56358 | 12022 ft | 337 kts | 258° |
| 2026-05-07 02:39 | 35.80889 | -79.59181 | 12029 ft | 337 kts | 257° |
| 2026-05-07 02:40 | 35.80382 | -79.62023 | 12381 ft | 341 kts | 257° |
| 2026-05-07 02:40 | 35.79869 | -79.64886 | 12994 ft | 343 kts | 257° |
| 2026-05-07 02:40 | 35.79359 | -79.67763 | 13610 ft | 345 kts | 257° |
| 2026-05-07 02:40 | 35.78851 | -79.70661 | 14200 ft | 347 kts | 258° |
| 2026-05-07 02:41 | 35.78346 | -79.73572 | 14795 ft | 348 kts | 258° |
| 2026-05-07 02:41 | 35.77841 | -79.76489 | 15440 ft | 349 kts | 258° |
| 2026-05-07 02:41 | 35.77336 | -79.79418 | 16054 ft | 350 kts | 259° |
| 2026-05-07 02:41 | 35.76831 | -79.82355 | 16720 ft | 351 kts | 259° |
| 2026-05-07 02:42 | 35.76324 | -79.85297 | 17344 ft | 352 kts | 259° |
| 2026-05-07 02:42 | 35.75814 | -79.88254 | 17916 ft | 354 kts | 259° |
| 2026-05-07 02:42 | 35.75301 | -79.91228 | 18475 ft | 356 kts | 259° |
| 2026-05-07 02:42 | 35.74784 | -79.94216 | 18975 ft | 358 kts | 259° |
| 2026-05-07 02:43 | 35.74264 | -79.97220 | 19460 ft | 360 kts | 259° |
| 2026-05-07 02:43 | 35.73740 | -80.00239 | 19934 ft | 362 kts | 259° |
| 2026-05-07 02:43 | 35.73214 | -80.03267 | 20413 ft | 363 kts | 259° |
| 2026-05-07 02:43 | 35.72683 | -80.06318 | 20876 ft | 365 kts | 259° |
| 2026-05-07 02:44 | 35.72150 | -80.09375 | 21353 ft | 366 kts | 259° |
| 2026-05-07 02:44 | 35.71614 | -80.12449 | 21793 ft | 368 kts | 259° |
| 2026-05-07 02:44 | 35.71073 | -80.15540 | 22243 ft | 370 kts | 259° |
| 2026-05-07 02:44 | 35.70531 | -80.18635 | 22774 ft | 370 kts | 260° |
| 2026-05-07 02:45 | 35.69989 | -80.21722 | 23294 ft | 370 kts | 260° |
| 2026-05-07 02:45 | 35.69443 | -80.24828 | 23650 ft | 373 kts | 260° |
| 2026-05-07 02:45 | 35.68893 | -80.27957 | 23955 ft | 375 kts | 259° |
| 2026-05-07 02:45 | 35.68339 | -80.31101 | 24268 ft | 377 kts | 259° |
| 2026-05-07 02:46 | 35.67782 | -80.34258 | 24596 ft | 379 kts | 259° |
| 2026-05-07 02:46 | 35.67228 | -80.37392 | 24904 ft | 381 kts | 259° |
| 2026-05-07 02:46 | 35.66655 | -80.40630 | 25207 ft | 383 kts | 259° |
| 2026-05-07 02:46 | 35.66095 | -80.43790 | 25522 ft | 385 kts | 259° |
| 2026-05-07 02:47 | 35.65499 | -80.47017 | 25828 ft | 387 kts | 257° |
| 2026-05-07 02:47 | 35.64631 | -80.50161 | 26114 ft | 391 kts | 250° |
| 2026-05-07 02:47 | 35.63570 | -80.53252 | 26397 ft | 393 kts | 250° |
| 2026-05-07 02:47 | 35.62507 | -80.56351 | 26747 ft | 393 kts | 250° |
| 2026-05-07 02:48 | 35.61450 | -80.59442 | 27155 ft | 392 kts | 250° |
| 2026-05-07 02:48 | 35.60398 | -80.62524 | 27573 ft | 390 kts | 250° |
| 2026-05-07 02:48 | 35.59354 | -80.65593 | 27944 ft | 389 kts | 250° |
| 2026-05-07 02:48 | 35.58312 | -80.68661 | 28347 ft | 388 kts | 250° |
| 2026-05-07 02:49 | 35.57273 | -80.71721 | 28762 ft | 387 kts | 250° |
| 2026-05-07 02:49 | 35.56238 | -80.74766 | 29176 ft | 386 kts | 250° |
| 2026-05-07 02:49 | 35.55205 | -80.77808 | 29586 ft | 385 kts | 250° |
| 2026-05-07 02:49 | 35.54172 | -80.80843 | 30000 ft | 384 kts | 250° |
| 2026-05-07 02:50 | 35.53143 | -80.83865 | 30372 ft | 383 kts | 250° |
| 2026-05-07 02:50 | 35.52121 | -80.86863 | 30839 ft | 378 kts | 250° |
| 2026-05-07 02:50 | 35.51111 | -80.89819 | 31322 ft | 374 kts | 250° |
| 2026-05-07 02:50 | 35.50110 | -80.92749 | 31823 ft | 369 kts | 250° |
| 2026-05-07 02:51 | 35.49117 | -80.95654 | 31953 ft | 372 kts | 250° |
| 2026-05-07 02:51 | 35.48118 | -80.98579 | 32013 ft | 372 kts | 250° |
| 2026-05-07 02:51 | 35.46441 | -81.03476 | 32018 ft | 369 kts | 250° |
| 2026-05-07 02:52 | 35.44464 | -81.09234 | 32041 ft | 365 kts | 250° |
| 2026-05-07 02:52 | 35.42503 | -81.14940 | 31978 ft | 366 kts | 250° |
| 2026-05-07 02:53 | 35.40498 | -81.20765 | 32021 ft | 376 kts | 250° |
| 2026-05-07 02:53 | 35.39480 | -81.23718 | 31746 ft | 376 kts | 250° |
| 2026-05-07 02:53 | 35.38470 | -81.26640 | 31506 ft | 370 kts | 250° |
| 2026-05-07 02:54 | 35.37469 | -81.29532 | 31277 ft | 366 kts | 250° |
| 2026-05-07 02:54 | 35.36479 | -81.32389 | 31026 ft | 364 kts | 250° |
| 2026-05-07 02:54 | 35.35490 | -81.35247 | 30782 ft | 364 kts | 250° |
| 2026-05-07 02:54 | 35.34502 | -81.38098 | 30545 ft | 365 kts | 250° |
| 2026-05-07 02:55 | 35.33508 | -81.40963 | 30302 ft | 366 kts | 250° |
| 2026-05-07 02:55 | 35.32510 | -81.43839 | 30075 ft | 369 kts | 250° |
| 2026-05-07 02:55 | 35.30479 | -81.49686 | 29950 ft | 378 kts | 250° |
| 2026-05-07 02:56 | 35.28431 | -81.55560 | 29918 ft | 369 kts | 250° |
| 2026-05-07 02:56 | 35.27428 | -81.58428 | 30036 ft | 364 kts | 250° |
| 2026-05-07 02:56 | 35.26433 | -81.61276 | 30044 ft | 364 kts | 250° |
| 2026-05-07 02:57 | 35.24439 | -81.66982 | 30069 ft | 365 kts | 249° |
| 2026-05-07 02:57 | 35.22447 | -81.72669 | 30025 ft | 358 kts | 249° |
| 2026-05-07 02:58 | 35.20503 | -81.78204 | 30013 ft | 354 kts | 249° |
| 2026-05-07 02:58 | 35.18549 | -81.83768 | 29997 ft | 357 kts | 249° |
| 2026-05-07 02:59 | 35.16578 | -81.89366 | 29974 ft | 360 kts | 249° |
| 2026-05-07 02:59 | 35.14595 | -81.94986 | 29963 ft | 360 kts | 249° |
| 2026-05-07 03:00 | 35.12613 | -82.00596 | 29971 ft | 359 kts | 249° |
| 2026-05-07 03:00 | 35.10640 | -82.06165 | 29968 ft | 356 kts | 249° |
| 2026-05-07 03:01 | 35.08678 | -82.11695 | 29960 ft | 354 kts | 249° |
| 2026-05-07 03:01 | 35.06725 | -82.17192 | 29963 ft | 352 kts | 249° |
| 2026-05-07 03:02 | 35.04772 | -82.22682 | 29978 ft | 355 kts | 249° |
| 2026-05-07 03:02 | 35.02791 | -82.28244 | 29982 ft | 364 kts | 249° |
| 2026-05-07 03:03 | 35.00626 | -82.33821 | 29969 ft | 364 kts | 244° |
| 2026-05-07 03:03 | 34.98025 | -82.39136 | 29973 ft | 366 kts | 242° |
| 2026-05-07 03:04 | 34.95395 | -82.44468 | 29980 ft | 368 kts | 242° |
| 2026-05-07 03:04 | 34.92779 | -82.49866 | 29987 ft | 371 kts | 242° |
| 2026-05-07 03:05 | 34.90153 | -82.55318 | 29973 ft | 374 kts | 242° |
| 2026-05-07 03:05 | 34.87508 | -82.60798 | 29988 ft | 376 kts | 242° |
| 2026-05-07 03:06 | 34.84579 | -82.66106 | 29976 ft | 379 kts | 238° |
| 2026-05-07 03:06 | 34.81496 | -82.71293 | 29974 ft | 377 kts | 238° |
| 2026-05-07 03:07 | 34.78465 | -82.76487 | 29974 ft | 375 kts | 238° |
| 2026-05-07 03:07 | 34.75497 | -82.81721 | 29713 ft | 381 kts | 240° |
| 2026-05-07 03:08 | 34.74000 | -82.84393 | 29402 ft | 386 kts | 240° |
| 2026-05-07 03:08 | 34.72484 | -82.87095 | 28990 ft | 387 kts | 240° |
| 2026-05-07 03:08 | 34.70964 | -82.89791 | 28514 ft | 385 kts | 239° |
| 2026-05-07 03:08 | 34.69458 | -82.92458 | 28065 ft | 380 kts | 240° |
| 2026-05-07 03:09 | 34.67972 | -82.95086 | 27627 ft | 375 kts | 240° |
| 2026-05-07 03:09 | 34.66501 | -82.97686 | 27199 ft | 372 kts | 240° |
| 2026-05-07 03:09 | 34.65039 | -83.00269 | 26769 ft | 370 kts | 240° |
| 2026-05-07 03:09 | 34.63584 | -83.02838 | 26326 ft | 368 kts | 240° |
| 2026-05-07 03:10 | 34.62124 | -83.05413 | 25732 ft | 371 kts | 240° |
| 2026-05-07 03:10 | 34.60660 | -83.07990 | 25263 ft | 370 kts | 240° |
| 2026-05-07 03:10 | 34.59204 | -83.10553 | 24867 ft | 368 kts | 240° |
| 2026-05-07 03:10 | 34.57754 | -83.13102 | 24447 ft | 366 kts | 240° |
| 2026-05-07 03:11 | 34.56312 | -83.15637 | 24023 ft | 364 kts | 240° |
| 2026-05-07 03:11 | 34.54878 | -83.18157 | 23633 ft | 361 kts | 240° |
| 2026-05-07 03:11 | 34.53458 | -83.20646 | 23168 ft | 357 kts | 241° |
| 2026-05-07 03:11 | 34.52061 | -83.23098 | 22764 ft | 350 kts | 241° |
| 2026-05-07 03:12 | 34.50688 | -83.25508 | 22338 ft | 345 kts | 241° |
| 2026-05-07 03:12 | 34.49335 | -83.27880 | 21963 ft | 339 kts | 241° |
| 2026-05-07 03:12 | 34.48003 | -83.30211 | 21582 ft | 334 kts | 241° |
| 2026-05-07 03:12 | 34.46678 | -83.32497 | 21224 ft | 329 kts | 241° |
| 2026-05-07 03:13 | 34.45363 | -83.34757 | 20840 ft | 327 kts | 240° |
| 2026-05-07 03:13 | 34.44054 | -83.37002 | 20406 ft | 325 kts | 240° |
| 2026-05-07 03:13 | 34.42751 | -83.39239 | 20036 ft | 324 kts | 240° |
| 2026-05-07 03:13 | 34.41458 | -83.41459 | 19676 ft | 322 kts | 240° |
| 2026-05-07 03:14 | 34.41037 | -83.42182 | 19549 ft | 322 kts | 240° |
| 2026-05-07 03:14 | 34.36266 | -83.50369 | 18237 ft | 321 kts | 240° |
| 2026-05-07 03:15 | 34.34979 | -83.52576 | 17824 ft | 321 kts | 240° |
| 2026-05-07 03:15 | 34.33709 | -83.54751 | 17452 ft | 320 kts | 240° |
| 2026-05-07 03:15 | 34.32426 | -83.56948 | 17074 ft | 319 kts | 240° |
| 2026-05-07 03:15 | 34.31127 | -83.59167 | 16699 ft | 318 kts | 239° |
| 2026-05-07 03:16 | 34.29871 | -83.61320 | 16324 ft | 318 kts | 238° |
| 2026-05-07 03:16 | 34.28507 | -83.63424 | 15968 ft | 320 kts | 230° |
| 2026-05-07 03:16 | 34.26857 | -83.65246 | 15596 ft | 322 kts | 225° |
| 2026-05-07 03:16 | 34.25157 | -83.67005 | 15223 ft | 322 kts | 225° |
| 2026-05-07 03:17 | 34.23456 | -83.68763 | 14864 ft | 321 kts | 225° |
| 2026-05-07 03:17 | 34.21768 | -83.70522 | 14525 ft | 320 kts | 225° |
| 2026-05-07 03:17 | 34.20094 | -83.72281 | 14173 ft | 317 kts | 225° |
| 2026-05-07 03:17 | 34.18439 | -83.74029 | 13816 ft | 315 kts | 225° |
| 2026-05-07 03:18 | 34.16803 | -83.75763 | 13427 ft | 312 kts | 225° |
| 2026-05-07 03:18 | 34.15185 | -83.77481 | 13059 ft | 308 kts | 225° |
| 2026-05-07 03:18 | 34.13591 | -83.79173 | 12702 ft | 300 kts | 225° |
| 2026-05-07 03:18 | 34.12052 | -83.80803 | 12362 ft | 290 kts | 225° |
| 2026-05-07 03:19 | 34.10561 | -83.82382 | 12083 ft | 279 kts | 225° |
| 2026-05-07 03:19 | 34.09135 | -83.83894 | 11937 ft | 268 kts | 225° |
| 2026-05-07 03:19 | 34.07752 | -83.85378 | 11687 ft | 265 kts | 225° |
| 2026-05-07 03:19 | 34.06376 | -83.86859 | 11364 ft | 265 kts | 225° |
| 2026-05-07 03:20 | 34.05015 | -83.88324 | 11152 ft | 260 kts | 225° |
| 2026-05-07 03:20 | 34.03668 | -83.89772 | 10897 ft | 258 kts | 225° |
| 2026-05-07 03:20 | 34.02331 | -83.91207 | 10672 ft | 257 kts | 225° |
| 2026-05-07 03:20 | 34.00993 | -83.92642 | 10437 ft | 259 kts | 225° |
| 2026-05-07 03:21 | 33.99643 | -83.94089 | 10212 ft | 260 kts | 225° |
| 2026-05-07 03:21 | 33.98284 | -83.95526 | 9986 ft | 259 kts | 221° |
| 2026-05-07 03:21 | 33.96654 | -83.96490 | 9725 ft | 266 kts | 200° |
| 2026-05-07 03:21 | 33.94807 | -83.96808 | 9468 ft | 272 kts | 187° |
| 2026-05-07 03:22 | 33.92914 | -83.96754 | 9226 ft | 272 kts | 184° |
| 2026-05-07 03:22 | 33.91028 | -83.96641 | 8922 ft | 272 kts | 184° |
| 2026-05-07 03:22 | 33.89138 | -83.96530 | 8685 ft | 270 kts | 184° |
| 2026-05-07 03:22 | 33.87274 | -83.96429 | 8442 ft | 267 kts | 184° |
| 2026-05-07 03:23 | 33.85418 | -83.96339 | 8108 ft | 267 kts | 184° |
| 2026-05-07 03:23 | 33.83566 | -83.96256 | 7817 ft | 266 kts | 185° |
| 2026-05-07 03:23 | 33.81725 | -83.96176 | 7553 ft | 263 kts | 185° |
| 2026-05-07 03:23 | 33.79898 | -83.96098 | 7216 ft | 263 kts | 185° |
| 2026-05-07 03:24 | 33.78056 | -83.96023 | 6869 ft | 266 kts | 185° |
| 2026-05-07 03:24 | 33.76217 | -83.95963 | 6676 ft | 260 kts | 188° |
| 2026-05-07 03:24 | 33.74499 | -83.96330 | 6335 ft | 248 kts | 207° |
| 2026-05-07 03:24 | 33.72928 | -83.97155 | 5963 ft | 248 kts | 209° |
| 2026-05-07 03:25 | 33.71488 | -83.98270 | 5607 ft | 246 kts | 221° |
| 2026-05-07 03:25 | 33.70203 | -83.99613 | 5351 ft | 243 kts | 224° |
| 2026-05-07 03:25 | 33.68953 | -84.00967 | 5097 ft | 242 kts | 224° |
| 2026-05-07 03:25 | 33.67706 | -84.02337 | 4667 ft | 245 kts | 225° |
| 2026-05-07 03:26 | 33.66491 | -84.03728 | 4489 ft | 238 kts | 224° |
| 2026-05-07 03:26 | 33.65399 | -84.05207 | 4132 ft | 240 kts | 240° |
| 2026-05-07 03:26 | 33.65047 | -84.07179 | 4053 ft | 250 kts | 264° |
| 2026-05-07 03:26 | 33.65028 | -84.09281 | 4006 ft | 252 kts | 265° |
| 2026-05-07 03:27 | 33.65009 | -84.11373 | 3973 ft | 249 kts | 264° |
| 2026-05-07 03:27 | 33.65000 | -84.13436 | 3974 ft | 247 kts | 264° |
| 2026-05-07 03:27 | 33.64993 | -84.15506 | 3974 ft | 248 kts | 264° |
| 2026-05-07 03:27 | 33.64989 | -84.17571 | 3961 ft | 245 kts | 265° |
| 2026-05-07 03:28 | 33.64988 | -84.19562 | 3871 ft | 231 kts | 264° |
| 2026-05-07 03:28 | 33.64985 | -84.21428 | 3760 ft | 216 kts | 264° |
| 2026-05-07 03:28 | 33.64976 | -84.23169 | 3586 ft | 203 kts | 263° |
| 2026-05-07 03:28 | 33.64979 | -84.24790 | 3482 ft | 186 kts | 263° |
| 2026-05-07 03:29 | 33.64994 | -84.26254 | 3323 ft | 172 kts | 265° |
| 2026-05-07 03:29 | 33.64998 | -84.27629 | 3126 ft | 161 kts | 259° |
| 2026-05-07 03:29 | 33.64972 | -84.28976 | 2923 ft | 164 kts | 262° |
| 2026-05-07 03:29 | 33.64964 | -84.30342 | 2709 ft | 163 kts | 261° |
| 2026-05-07 03:30 | 33.64962 | -84.31685 | 2522 ft | 158 kts | 261° |
| 2026-05-07 03:30 | 33.64961 | -84.32995 | 2294 ft | 154 kts | 263° |
| 2026-05-07 03:30 | 33.64960 | -84.34247 | 2138 ft | 151 kts | 262° |
| 2026-05-07 03:30 | 33.64963 | -84.35518 | 1948 ft | 150 kts | 262° |
| 2026-05-07 03:31 | 33.64958 | -84.36759 | 1721 ft | 148 kts | 263° |
| 2026-05-07 03:31 | 33.64946 | -84.38026 | 1527 ft | 153 kts | 264° |
| 2026-05-07 03:31 | 33.64957 | -84.39299 | 1338 ft | 152 kts | 265° |
| 2026-05-07 03:31 | 33.64957 | -84.40543 | 1111 ft | 146 kts | 263° |
| 2026-05-07 03:32 | 33.64967 | -84.41724 | 1010 ft | 132 kts | 263° |
| 2026-05-07 03:32 | 33.64953 | -84.42651 | 1006 ft | 82 kts | 271° |
| 2026-05-07 03:32 | 33.64943 | -84.43104 | 1005 ft | 36 kts | 257° |
| 2026-05-07 03:32 | 33.64876 | -84.43293 | 1005 ft | 10 kts | 232° |
| 2026-05-07 03:33 | 33.64817 | -84.43298 | 1006 ft | 9 kts | 148° |
| 2026-05-07 03:33 | 33.64795 | -84.43263 | 1006 ft | 5 kts | 108° |
| 2026-05-07 03:33 | 33.64791 | -84.43223 | 1006 ft | 5 kts | 94° |
| 2026-05-07 03:33 | 33.64790 | -84.43184 | 1006 ft | 5 kts | 98° |
| 2026-05-07 03:34 | 33.64782 | -84.43165 | 1006 ft | 0 kts | 129° |
| 2026-05-07 03:34 | 33.64778 | -84.43160 | 1006 ft | 4 kts | 134° |
| 2026-05-07 03:34 | 33.64734 | -84.43137 | 1006 ft | 8 kts | 172° |
| 2026-05-07 03:34 | 33.64680 | -84.43138 | 1007 ft | 8 kts | 198° |
| 2026-05-07 03:35 | 33.64642 | -84.43181 | 1007 ft | 8 kts | 238° |
| 2026-05-07 03:35 | 33.64616 | -84.43234 | 1007 ft | 7 kts | 235° |
| 2026-05-07 03:35 | 33.64587 | -84.43283 | 1007 ft | 7 kts | 235° |
| 2026-05-07 03:35 | 33.64564 | -84.43333 | 1006 ft | 7 kts | 247° |
| 2026-05-07 03:36 | 33.64548 | -84.43387 | 1006 ft | 7 kts | 254° |
| 2026-05-07 03:36 | 33.64543 | -84.43442 | 1006 ft | 7 kts | 265° |
| 2026-05-07 03:36 | 33.64541 | -84.43497 | 1006 ft | 7 kts | 268° |
| 2026-05-07 03:36 | 33.64541 | -84.43550 | 1006 ft | 6 kts | 271° |
| 2026-05-07 03:37 | 33.64542 | -84.43603 | 1006 ft | 6 kts | 270° |
| 2026-05-07 03:37 | 33.64541 | -84.43654 | 1005 ft | 6 kts | 268° |
| 2026-05-07 03:37 | 33.64528 | -84.43700 | 1005 ft | 6 kts | 233° |
| 2026-05-07 03:37 | 33.64500 | -84.43736 | 1005 ft | 6 kts | 226° |
| 2026-05-07 03:38 | 33.64471 | -84.43768 | 1005 ft | 6 kts | 216° |
| 2026-05-07 03:38 | 33.64435 | -84.43786 | 1005 ft | 5 kts | 194° |
| 2026-05-07 03:38 | 33.64398 | -84.43788 | 1005 ft | 5 kts | 178° |
| 2026-05-07 03:38 | 33.64362 | -84.43787 | 1005 ft | 5 kts | 179° |
| 2026-05-07 03:39 | 33.64327 | -84.43786 | 1005 ft | 5 kts | 177° |
| 2026-05-07 03:39 | 33.64292 | -84.43786 | 1005 ft | 5 kts | 180° |
| 2026-05-07 03:39 | 33.64262 | -84.43796 | 1005 ft | 5 kts | 233° |
| 2026-05-07 03:39 | 33.64265 | -84.43835 | 1005 ft | 5 kts | 276° |
| 2026-05-07 03:40 | 33.64265 | -84.43859 | 1005 ft | 0 kts | 272° |